Time;durP1;ratioP1;P1;durP2;ratioP2;P2;SDS_P1;SDS_P2;PMS_P1;PMS_P2;Temp;Humidity;BMP_temperature;BMP_pressure;BME280_temperature;BME280_humidity;BME280_pressure;Samples;Min_cycle;Max_cycle;Signal;HPM_P1;HPM_P2
2021/03/17 00:00:42;;;;;;;0.70;0.68;;;4.30;99.90;;;;;;5000381;28;20697;-68
2021/03/17 00:03:08;;;;;;;0.50;0.50;;;3.80;99.90;;;;;;4998846;28;20909;-68
2021/03/17 00:05:43;;;;;;;0.80;0.60;;;3.90;99.90;;;;;;4999524;28;20752;-68
2021/03/17 00:08:09;;;;;;;0.60;0.50;;;4.20;99.90;;;;;;4998918;28;20400;-68
2021/03/17 00:10:39;;;;;;;0.50;0.50;;;4.10;99.90;;;;;;5017322;28;20387;-68
2021/03/17 00:13:05;;;;;;;0.73;0.70;;;4.10;99.90;;;;;;4998567;28;20417;-73
2021/03/17 00:15:38;;;;;;;0.60;0.50;;;4.30;99.90;;;;;;5001926;28;20411;-68
2021/03/17 00:18:06;;;;;;;0.60;0.60;;;3.90;99.90;;;;;;5009471;28;20718;-69
2021/03/17 00:20:32;;;;;;;0.70;0.60;;;4.00;99.90;;;;;;5010409;28;20392;-68
2021/03/17 00:22:58;;;;;;;1.10;0.80;;;4.00;99.90;;;;;;5010190;28;20746;-68
2021/03/17 00:25:26;;;;;;;0.60;0.40;;;4.00;99.90;;;;;;5009698;28;20408;-68
2021/03/17 00:27:52;;;;;;;0.70;0.50;;;4.40;99.90;;;;;;5010023;28;20411;-68
2021/03/17 00:30:18;;;;;;;1.00;0.60;;;4.40;99.90;;;;;;5009744;28;20380;-68
2021/03/17 00:32:44;;;;;;;0.80;0.60;;;4.00;99.90;;;;;;4995794;28;20389;-69
2021/03/17 00:35:10;;;;;;;1.90;0.70;;;5.10;99.90;;;;;;4990360;28;20814;-67
2021/03/17 00:37:36;;;;;;;1.30;0.60;;;4.00;99.90;;;;;;4990995;28;20775;-68
2021/03/17 00:40:05;;;;;;;1.30;0.60;;;5.50;99.90;;;;;;4990471;28;20441;-73
2021/03/17 00:45:53;;;;;;;0.88;0.70;;;4.10;99.90;;;;;;4991272;28;20795;-68
2021/03/17 00:48:19;;;;;;;1.70;0.70;;;4.00;99.90;;;;;;4993760;28;20416;-68
2021/03/17 00:50:45;;;;;;;0.68;0.63;;;4.00;99.90;;;;;;4994416;28;20398;-67
2021/03/17 00:53:10;;;;;;;1.20;0.90;;;4.20;99.90;;;;;;4993486;28;20740;-67
2021/03/17 00:55:36;;;;;;;0.90;0.80;;;4.00;99.90;;;;;;5009135;28;20404;-67
2021/03/17 00:58:02;;;;;;;1.02;0.93;;;3.80;99.90;;;;;;4993976;28;20410;-72
2021/03/17 01:00:28;;;;;;;0.93;0.80;;;4.10;99.90;;;;;;4993565;28;20755;-67
2021/03/17 01:02:54;;;;;;;0.90;0.90;;;4.80;99.90;;;;;;4994174;28;20397;-67
2021/03/17 01:08:41;;;;;;;1.50;1.23;;;3.90;99.90;;;;;;4993724;28;20385;-68
2021/03/17 01:11:07;;;;;;;1.38;1.10;;;3.80;99.90;;;;;;4993198;28;20402;-71
2021/03/17 01:13:33;;;;;;;1.20;1.10;;;4.00;99.90;;;;;;4993714;28;20474;-69
2021/03/17 01:15:59;;;;;;;1.30;1.10;;;3.80;99.90;;;;;;4993787;28;20402;-67
2021/03/17 01:18:25;;;;;;;1.30;1.20;;;4.20;99.90;;;;;;4992982;28;21113;-67
2021/03/17 01:20:51;;;;;;;1.13;1.00;;;3.70;99.90;;;;;;4993621;28;20407;-67
2021/03/17 01:23:17;;;;;;;1.50;1.40;;;3.80;99.90;;;;;;4992620;28;20736;-67
2021/03/17 01:25:45;;;;;;;1.40;1.30;;;3.70;99.90;;;;;;4993420;28;20422;-68
2021/03/17 01:28:11;;;;;;;1.15;1.02;;;4.10;99.90;;;;;;4992542;28;20859;-68
2021/03/17 01:30:38;;;;;;;1.70;1.30;;;3.90;99.90;;;;;;4993456;28;20379;-67
2021/03/17 01:33:07;;;;;;;1.70;1.40;;;5.20;99.90;;;;;;5010858;28;20400;-72
2021/03/17 01:35:33;;;;;;;1.20;1.10;;;3.70;99.90;;;;;;5012607;28;20869;-70
2021/03/17 01:37:58;;;;;;;0.85;0.85;;;3.80;99.90;;;;;;5013013;28;20385;-69
2021/03/17 01:40:29;;;;;;;1.15;1.05;;;3.50;99.90;;;;;;5012094;28;20443;-68
2021/03/17 01:42:55;;;;;;;1.40;1.05;;;3.80;99.90;;;;;;5012971;28;20411;-67
2021/03/17 01:45:22;;;;;;;1.00;0.90;;;3.50;99.90;;;;;;5011834;28;20444;-68
2021/03/17 01:47:50;;;;;;;0.80;0.80;;;3.40;99.90;;;;;;5012571;28;20447;-67
2021/03/17 01:50:34;;;;;;;2.08;0.98;;;4.10;99.90;;;;;;5011820;28;20389;-68
2021/03/17 01:53:08;;;;;;;1.20;1.10;;;3.50;99.90;;;;;;5027794;28;20393;-68
2021/03/17 01:55:34;;;;;;;1.50;1.10;;;3.60;99.90;;;;;;5011953;28;20396;-68
2021/03/17 01:58:00;;;;;;;1.30;1.20;;;4.10;99.90;;;;;;5012390;28;20400;-67
2021/03/17 02:00:26;;;;;;;1.40;1.30;;;3.70;99.90;;;;;;5011455;28;20392;-68
2021/03/17 02:02:53;;;;;;;1.30;1.20;;;3.80;99.90;;;;;;5012205;28;20411;-67
2021/03/17 02:05:26;;;;;;;1.50;1.40;;;4.10;99.90;;;;;;5011185;28;20408;-68
2021/03/17 02:07:57;;;;;;;1.40;1.30;;;3.80;99.90;;;;;;5012095;28;20926;-68
2021/03/17 02:10:26;;;;;;;1.60;1.50;;;3.30;99.90;;;;;;5011245;28;20381;-68
2021/03/17 02:13:44;;;;;;;1.40;1.30;;;4.30;99.90;;;;;;5011939;28;20388;-67
2021/03/17 02:16:17;;;;;;;1.30;1.20;;;3.50;99.90;;;;;;5011275;28;20392;-72
2021/03/17 02:19:26;;;;;;;1.35;1.25;;;3.50;99.90;;;;;;5027125;28;20413;-67
2021/03/17 02:22:22;;;;;;;2.40;1.50;;;3.50;99.90;;;;;;5011735;28;20911;-67
2021/03/17 02:25:15;;;;;;;1.90;1.50;;;3.50;99.90;;;;;;5011610;28;20765;-67
2021/03/17 02:28:08;;;;;;;2.60;1.50;;;3.40;99.90;;;;;;5011737;28;20882;-67
2021/03/17 02:30:55;;;;;;;1.40;1.30;;;3.50;99.90;;;;;;5011099;28;20433;-67
2021/03/17 02:33:33;;;;;;;1.45;1.35;;;3.50;99.90;;;;;;4991594;28;20382;-67
2021/03/17 02:36:06;;;;;;;1.60;1.40;;;3.50;99.90;;;;;;4992274;28;20386;-68
2021/03/17 02:38:34;;;;;;;1.38;1.27;;;3.70;99.90;;;;;;4991358;28;20390;-68
2021/03/17 02:41:01;;;;;;;1.45;1.30;;;3.70;99.90;;;;;;4992016;28;20418;-68
2021/03/17 02:43:34;;;;;;;1.60;1.50;;;4.00;99.90;;;;;;5006155;28;20398;-68
2021/03/17 02:46:11;;;;;;;2.22;1.45;;;3.70;99.90;;;;;;4991946;28;20496;-68
2021/03/17 02:48:43;;;;;;;2.05;1.50;;;3.40;99.90;;;;;;4991837;28;20378;-68
2021/03/17 02:51:16;;;;;;;1.30;1.20;;;3.60;99.90;;;;;;4991849;28;20437;-73
2021/03/17 02:53:45;;;;;;;1.70;1.50;;;3.50;99.90;;;;;;4992016;28;20697;-68
2021/03/17 02:56:12;;;;;;;1.50;1.40;;;3.80;99.90;;;;;;4991377;28;20395;-73
2021/03/17 02:58:43;;;;;;;1.38;1.27;;;4.30;99.90;;;;;;4991939;28;20387;-67
2021/03/17 03:01:13;;;;;;;1.43;1.33;;;3.60;99.90;;;;;;4991507;28;20378;-71
2021/03/17 03:03:39;;;;;;;1.55;1.35;;;3.90;99.90;;;;;;4991941;28;20429;-67
2021/03/17 03:06:07;;;;;;;1.92;1.70;;;4.20;99.90;;;;;;5006739;28;20473;-68
2021/03/17 03:08:36;;;;;;;1.50;1.40;;;3.70;99.90;;;;;;4990587;28;20383;-68
2021/03/17 03:11:04;;;;;;;1.30;1.20;;;3.80;99.90;;;;;;5006825;28;20438;-68
2021/03/17 03:13:32;;;;;;;1.35;1.25;;;3.70;99.90;;;;;;5005928;28;20394;-68
2021/03/17 03:15:59;;;;;;;2.72;1.80;;;3.80;99.90;;;;;;4991608;28;20383;-67
2021/03/17 03:18:27;;;;;;;1.40;1.30;;;4.20;99.90;;;;;;4990679;28;20778;-70
2021/03/17 03:20:55;;;;;;;1.88;1.60;;;3.90;99.90;;;;;;4991612;28;20717;-68
2021/03/17 03:23:23;;;;;;;1.40;1.30;;;3.80;99.90;;;;;;5005927;28;20895;-68
2021/03/17 03:25:50;;;;;;;1.40;1.30;;;5.20;99.90;;;;;;4989884;28;20997;-68
2021/03/17 03:28:17;;;;;;;1.48;1.38;;;4.00;99.90;;;;;;5005886;28;20717;-70
2021/03/17 03:30:46;;;;;;;1.58;1.40;;;4.10;99.90;;;;;;4991139;28;20391;-67
2021/03/17 03:33:13;;;;;;;2.70;1.60;;;3.00;99.90;;;;;;5006281;28;20430;-72
2021/03/17 03:35:40;;;;;;;1.40;1.30;;;4.30;99.90;;;;;;5006205;28;20405;-68
2021/03/17 03:38:08;;;;;;;1.42;1.33;;;3.90;99.90;;;;;;4991799;28;20863;-67
2021/03/17 03:40:35;;;;;;;1.35;1.25;;;4.20;99.90;;;;;;4990226;28;20406;-70
2021/03/17 03:43:01;;;;;;;1.10;1.00;;;3.90;99.90;;;;;;4991469;28;20382;-69
2021/03/17 03:45:27;;;;;;;1.70;1.40;;;3.90;99.90;;;;;;4990510;28;20414;-69
2021/03/17 03:47:53;;;;;;;1.95;1.60;;;3.70;99.90;;;;;;5006411;28;20449;-69
2021/03/17 03:50:21;;;;;;;1.30;1.10;;;3.70;99.90;;;;;;4990539;28;20398;-69
2021/03/17 03:53:06;;;;;;;1.33;1.15;;;4.40;99.90;;;;;;4991186;28;20386;-68
2021/03/17 03:56:00;;;;;;;1.70;1.27;;;3.80;99.90;;;;;;4990408;28;20472;-69
2021/03/17 03:58:42;;;;;;;1.50;1.10;;;3.80;99.90;;;;;;4990856;28;20399;-68
2021/03/17 04:01:26;;;;;;;1.27;1.17;;;4.40;99.90;;;;;;4991156;28;20414;-68
2021/03/17 04:04:03;;;;;;;1.40;1.27;;;3.70;99.90;;;;;;4991321;28;20402;-68
2021/03/17 04:06:32;;;;;;;1.80;1.50;;;4.40;99.90;;;;;;4990323;28;20504;-69
2021/03/17 04:09:03;;;;;;;1.40;1.10;;;4.20;99.90;;;;;;4991226;28;20393;-71
2021/03/17 04:11:29;;;;;;;1.25;1.15;;;3.90;99.90;;;;;;4990231;28;20469;-68
2021/03/17 04:16:49;;;;;;;2.30;1.35;;;3.90;99.90;;;;;;4993716;28;20400;-68
2021/03/17 04:19:15;;;;;;;1.25;1.15;;;4.40;99.90;;;;;;4990751;28;20383;-73
2021/03/17 04:21:45;;;;;;;1.30;1.20;;;4.50;99.90;;;;;;4992470;28;20430;-68
2021/03/17 04:24:13;;;;;;;1.60;1.50;;;3.90;99.90;;;;;;4994661;28;20473;-68
2021/03/17 04:26:39;;;;;;;1.40;1.30;;;4.10;99.90;;;;;;4993946;28;20405;-69
2021/03/17 04:29:06;;;;;;;1.60;1.50;;;3.80;99.90;;;;;;4995180;28;20386;-69
2021/03/17 04:31:42;;;;;;;1.80;1.60;;;3.90;99.90;;;;;;4999053;28;20464;-69
2021/03/17 04:34:09;;;;;;;1.63;1.50;;;3.80;99.90;;;;;;5014483;28;20471;-69
2021/03/17 04:36:35;;;;;;;2.38;2.17;;;3.80;99.90;;;;;;5013232;28;21183;-69
2021/03/17 04:39:01;;;;;;;2.33;2.15;;;4.60;99.90;;;;;;5013857;28;20416;-68
2021/03/17 04:41:27;;;;;;;2.35;2.13;;;3.60;99.90;;;;;;5013127;28;20380;-69
2021/03/17 04:43:55;;;;;;;2.20;2.10;;;3.80;99.90;;;;;;5014168;28;20385;-69
2021/03/17 04:46:22;;;;;;;2.33;2.03;;;3.80;99.90;;;;;;5013171;28;20448;-68
2021/03/17 04:48:49;;;;;;;2.70;2.50;;;3.40;99.90;;;;;;5013602;28;20389;-67
2021/03/17 04:51:18;;;;;;;2.97;2.67;;;3.30;99.90;;;;;;5029106;28;20393;-67
2021/03/17 04:53:44;;;;;;;3.22;2.90;;;3.70;99.90;;;;;;5013577;28;20385;-67
2021/03/17 04:56:11;;;;;;;2.55;2.35;;;4.20;99.90;;;;;;5007192;28;20673;-70
2021/03/17 04:58:39;;;;;;;3.00;2.67;;;3.50;99.90;;;;;;5003085;28;20377;-68
2021/03/17 05:01:07;;;;;;;2.83;2.50;;;5.40;99.90;;;;;;5002620;28;21099;-71
2021/03/17 05:03:35;;;;;;;3.30;2.80;;;5.30;99.90;;;;;;5017824;28;20777;-70
2021/03/17 05:06:03;;;;;;;2.70;2.50;;;3.60;99.90;;;;;;5002403;28;20448;-69
2021/03/17 05:08:30;;;;;;;3.90;3.60;;;3.60;99.90;;;;;;5000380;28;20408;-69
2021/03/17 05:10:57;;;;;;;3.47;3.17;;;3.50;99.90;;;;;;5018920;28;20432;-68
2021/03/17 05:13:23;;;;;;;4.28;3.70;;;4.20;99.90;;;;;;5003399;28;20465;-74
2021/03/17 05:15:50;;;;;;;4.28;3.88;;;4.30;99.90;;;;;;5001956;28;20424;-69
2021/03/17 05:18:19;;;;;;;3.83;3.40;;;3.80;99.90;;;;;;5001788;28;20459;-70
2021/03/17 05:20:48;;;;;;;4.10;3.67;;;3.70;99.90;;;;;;5003404;28;20460;-69
2021/03/17 05:23:17;;;;;;;3.67;3.38;;;3.90;99.90;;;;;;5001272;28;20491;-69
2021/03/17 05:25:46;;;;;;;3.40;3.10;;;3.70;99.90;;;;;;5001102;28;20417;-70
2021/03/17 05:28:16;;;;;;;3.63;3.33;;;5.00;99.90;;;;;;5002418;28;20983;-69
2021/03/17 05:30:46;;;;;;;3.90;3.50;;;4.10;99.90;;;;;;5002050;28;21246;-71
2021/03/17 05:33:12;;;;;;;4.13;3.63;;;3.70;99.90;;;;;;5000878;28;20396;-68
2021/03/17 05:35:39;;;;;;;4.30;3.90;;;4.10;99.90;;;;;;5002749;28;20393;-69
2021/03/17 05:38:06;;;;;;;4.70;4.10;;;3.70;99.90;;;;;;5002549;28;20393;-68
2021/03/17 05:40:33;;;;;;;5.45;4.30;;;3.60;99.90;;;;;;5000200;28;20511;-69
2021/03/17 05:43:01;;;;;;;4.50;4.10;;;3.60;99.90;;;;;;5000202;28;20393;-71
2021/03/17 05:45:27;;;;;;;5.40;4.00;;;3.60;99.90;;;;;;5002646;28;20524;-71
2021/03/17 05:47:54;;;;;;;4.10;3.70;;;4.20;99.90;;;;;;5007837;28;20571;-68
2021/03/17 05:50:23;;;;;;;3.85;3.45;;;3.90;99.90;;;;;;5012299;28;20439;-74
2021/03/17 05:52:48;;;;;;;5.30;4.28;;;3.60;99.90;;;;;;5017747;28;20428;-68
2021/03/17 05:55:15;;;;;;;4.10;3.70;;;3.90;99.90;;;;;;5031328;28;20409;-69
2021/03/17 05:57:42;;;;;;;4.00;3.60;;;3.50;99.90;;;;;;5030286;28;20399;-69
2021/03/17 06:00:11;;;;;;;5.20;3.90;;;3.50;99.90;;;;;;5032066;28;20417;-67
2021/03/17 06:02:38;;;;;;;4.93;4.43;;;3.40;99.90;;;;;;5046416;28;20428;-70
2021/03/17 06:05:05;;;;;;;4.65;4.13;;;3.50;99.90;;;;;;5031905;28;20465;-70
2021/03/17 06:07:59;;;;;;;5.07;4.28;;;3.40;99.90;;;;;;5030785;28;20392;-68
2021/03/17 06:10:28;;;;;;;4.97;4.47;;;3.50;99.90;;;;;;5030874;28;21003;-72
2021/03/17 06:12:59;;;;;;;4.15;3.75;;;3.60;99.90;;;;;;5031862;28;20386;-69
2021/03/17 06:15:27;;;;;;;4.80;4.25;;;3.60;99.90;;;;;;5031154;28;20808;-71
2021/03/17 06:18:05;;;;;;;5.03;4.22;;;3.30;99.90;;;;;;5031985;28;20387;-68
2021/03/17 06:20:31;;;;;;;4.85;4.30;;;3.40;99.90;;;;;;5030890;28;20503;-68
2021/03/17 06:22:57;;;;;;;5.75;4.40;;;3.60;99.90;;;;;;5031489;28;21040;-68
2021/03/17 06:25:24;;;;;;;4.90;4.40;;;4.10;99.90;;;;;;5029960;28;20414;-72
2021/03/17 06:27:51;;;;;;;4.13;3.72;;;4.00;99.90;;;;;;5029827;28;20413;-67
2021/03/17 06:30:20;;;;;;;4.72;4.30;;;3.50;99.90;;;;;;5024921;28;20400;-67
2021/03/17 06:32:46;;;;;;;4.80;4.30;;;3.20;99.90;;;;;;5007828;28;20387;-68
2021/03/17 06:35:16;;;;;;;4.90;4.30;;;3.50;99.90;;;;;;5011246;28;20797;-67
2021/03/17 06:37:41;;;;;;;4.82;4.35;;;3.60;99.90;;;;;;4999519;28;20443;-69
2021/03/17 06:40:34;;;;;;;4.30;3.90;;;3.50;99.90;;;;;;5017090;28;20401;-69
2021/03/17 06:43:09;;;;;;;5.10;4.10;;;3.60;99.90;;;;;;5000082;28;20408;-69
2021/03/17 06:45:36;;;;;;;5.15;4.40;;;3.60;99.90;;;;;;5005639;28;20457;-68
2021/03/17 06:48:24;;;;;;;4.30;3.90;;;3.90;99.90;;;;;;5010878;28;20442;-69
2021/03/17 06:51:11;;;;;;;4.38;3.80;;;3.60;99.90;;;;;;5011200;28;20426;-69
2021/03/17 06:53:54;;;;;;;5.40;4.30;;;3.70;99.90;;;;;;5007186;28;20486;-69
2021/03/17 06:56:27;;;;;;;5.65;4.50;;;3.70;99.90;;;;;;5002124;28;20490;-68
2021/03/17 06:59:00;;;;;;;4.37;3.97;;;3.60;99.90;;;;;;5002270;28;20397;-68
2021/03/17 07:01:43;;;;;;;4.90;4.23;;;3.60;99.90;;;;;;4998750;28;20461;-73
2021/03/17 07:04:13;;;;;;;5.45;4.15;;;4.80;99.90;;;;;;5002739;28;20406;-68
2021/03/17 07:06:46;;;;;;;4.75;4.25;;;3.70;99.90;;;;;;4992144;28;20397;-67
2021/03/17 07:09:20;;;;;;;4.85;3.97;;;3.80;99.90;;;;;;4997138;28;20493;-68
2021/03/17 07:11:49;;;;;;;4.70;4.00;;;3.80;99.90;;;;;;5005309;28;20401;-68
2021/03/17 07:14:25;;;;;;;5.77;4.80;;;3.60;99.90;;;;;;5004666;28;20389;-69
2021/03/17 07:16:54;;;;;;;5.40;4.47;;;4.20;99.90;;;;;;4997217;28;20390;-69
2021/03/17 07:19:31;;;;;;;5.25;4.50;;;4.10;99.90;;;;;;5001242;28;20893;-68
2021/03/17 07:22:07;;;;;;;5.78;4.95;;;4.60;99.90;;;;;;5005227;28;20382;-74
2021/03/17 07:24:34;;;;;;;6.15;4.60;;;4.90;99.90;;;;;;5012757;28;20420;-71
2021/03/17 07:27:23;;;;;;;5.55;4.53;;;4.00;99.90;;;;;;5013852;28;20423;-72
2021/03/17 07:29:58;;;;;;;5.13;4.63;;;3.90;99.90;;;;;;4998942;28;20385;-71
2021/03/17 07:32:28;;;;;;;6.15;4.63;;;5.60;99.90;;;;;;4995447;28;21230;-69
2021/03/17 07:34:54;;;;;;;6.03;4.65;;;3.80;99.90;;;;;;4995644;28;20401;-71
2021/03/17 07:37:25;;;;;;;4.70;4.20;;;4.00;99.90;;;;;;4999509;28;20401;-71
2021/03/17 07:39:53;;;;;;;5.50;4.40;;;3.80;99.90;;;;;;4997232;28;20416;-68
2021/03/17 07:42:20;;;;;;;4.68;4.03;;;4.00;99.90;;;;;;5010402;28;20476;-69
2021/03/17 07:44:47;;;;;;;5.07;4.53;;;3.90;99.90;;;;;;5013409;28;20481;-72
2021/03/17 07:47:14;;;;;;;6.30;4.70;;;4.10;99.90;;;;;;5013394;28;20405;-70
2021/03/17 07:49:45;;;;;;;5.07;4.57;;;4.30;99.90;;;;;;4996007;28;20408;-69
2021/03/17 07:52:21;;;;;;;4.30;3.90;;;4.10;99.90;;;;;;5012744;28;20409;-68
2021/03/17 07:54:52;;;;;;;5.70;4.50;;;3.90;99.90;;;;;;4998755;28;20403;-73
2021/03/17 07:57:21;;;;;;;5.07;4.40;;;4.30;99.90;;;;;;5002132;28;20404;-68
2021/03/17 07:59:48;;;;;;;4.38;3.80;;;3.90;99.90;;;;;;5000608;28;20400;-69
2021/03/17 08:02:15;;;;;;;5.90;4.32;;;3.80;99.90;;;;;;4997441;28;20415;-74
2021/03/17 08:04:42;;;;;;;4.93;4.20;;;4.10;99.90;;;;;;5000192;28;20416;-68
2021/03/17 08:07:07;;;;;;;4.47;4.07;;;4.40;99.90;;;;;;5000891;28;20393;-70
2021/03/17 08:09:33;;;;;;;4.60;3.50;;;4.20;99.90;;;;;;4999700;28;20393;-72
2021/03/17 08:12:02;;;;;;;5.30;3.90;;;4.70;99.90;;;;;;4998167;28;21066;-70
2021/03/17 08:14:30;;;;;;;5.30;4.30;;;4.40;99.90;;;;;;5008037;28;20396;-74
2021/03/17 08:16:56;;;;;;;4.93;4.30;;;4.20;99.90;;;;;;5001434;28;20372;-71
2021/03/17 08:19:29;;;;;;;5.63;4.25;;;4.00;99.90;;;;;;5002003;28;21634;-69
2021/03/17 08:21:56;;;;;;;4.70;4.25;;;3.10;99.90;;;;;;4999414;28;20471;-75
2021/03/17 08:24:36;;;;;;;5.60;4.30;;;4.10;99.90;;;;;;5001185;28;20401;-71
2021/03/17 08:27:09;;;;;;;4.70;3.80;;;4.10;99.90;;;;;;5000214;28;20454;-69
2021/03/17 08:29:37;;;;;;;4.82;4.10;;;3.80;99.90;;;;;;5001769;28;20434;-68
2021/03/17 08:32:04;;;;;;;5.68;4.10;;;3.70;99.90;;;;;;4998817;28;20389;-71
2021/03/17 08:34:33;;;;;;;5.47;4.40;;;4.00;99.90;;;;;;5000185;28;21083;-73
2021/03/17 08:37:03;;;;;;;4.53;3.75;;;4.00;99.90;;;;;;5000190;28;20485;-70
2021/03/17 08:39:29;;;;;;;5.18;3.90;;;4.10;99.90;;;;;;4998044;28;20412;-74
2021/03/17 08:42:27;;;;;;;3.90;3.50;;;3.90;99.90;;;;;;4999602;28;20403;-74
2021/03/17 08:44:55;;;;;;;4.40;4.00;;;4.30;99.90;;;;;;4997442;28;20543;-74
2021/03/17 08:47:22;;;;;;;5.95;4.32;;;4.00;99.90;;;;;;5003192;28;20637;-71
2021/03/17 08:49:53;;;;;;;4.90;3.85;;;4.50;99.90;;;;;;5000956;28;20388;-70
2021/03/17 08:52:37;;;;;;;4.20;3.80;;;4.60;99.90;;;;;;5001029;28;20761;-71
2021/03/17 08:55:07;;;;;;;4.85;4.05;;;4.60;99.90;;;;;;5000440;28;20413;-72
2021/03/17 08:57:52;;;;;;;4.10;2.83;;;4.70;99.90;;;;;;5000785;28;20795;-70
2021/03/17 09:00:46;;;;;;;3.13;2.80;;;4.60;99.90;;;;;;5015449;28;20405;-70
2021/03/17 09:03:30;;;;;;;3.10;2.80;;;4.60;99.90;;;;;;4996572;28;20413;-69
2021/03/17 09:06:14;;;;;;;3.20;2.90;;;4.70;99.90;;;;;;4997374;28;20480;-69
2021/03/17 09:08:55;;;;;;;3.30;2.90;;;4.50;99.90;;;;;;4997566;28;21166;-71
2021/03/17 09:11:44;;;;;;;2.90;2.60;;;4.80;99.90;;;;;;5000243;28;20801;-68
2021/03/17 09:14:19;;;;;;;3.40;3.10;;;4.70;99.90;;;;;;4995698;28;20535;-69
2021/03/17 09:17:09;;;;;;;2.97;2.50;;;4.60;99.90;;;;;;4998776;28;20456;-72
2021/03/17 09:19:58;;;;;;;3.67;2.78;;;4.70;99.90;;;;;;4999780;28;20394;-73
2021/03/17 09:22:44;;;;;;;2.80;2.50;;;4.70;99.90;;;;;;4997717;28;20381;-68
2021/03/17 09:25:19;;;;;;;3.50;3.00;;;4.50;99.90;;;;;;4999611;28;20416;-70
2021/03/17 09:27:53;;;;;;;3.10;2.50;;;4.60;99.90;;;;;;4997522;28;20408;-69
2021/03/17 09:30:22;;;;;;;3.93;3.20;;;4.80;99.90;;;;;;5000494;28;20397;-71
2021/03/17 09:32:49;;;;;;;3.17;2.80;;;4.80;99.90;;;;;;4996508;28;20408;-73
2021/03/17 09:35:17;;;;;;;3.05;2.67;;;5.30;99.90;;;;;;4997982;28;21046;-69
2021/03/17 09:37:44;;;;;;;3.95;2.30;;;5.00;99.90;;;;;;4998634;28;20397;-68
2021/03/17 09:40:17;;;;;;;2.15;1.95;;;5.20;99.90;;;;;;5000826;28;20457;-69
2021/03/17 09:42:43;;;;;;;3.22;2.33;;;5.00;99.90;;;;;;4996469;28;20377;-72
2021/03/17 09:45:10;;;;;;;2.58;2.38;;;5.00;99.90;;;;;;4999705;28;20413;-69
2021/03/17 09:47:37;;;;;;;2.60;2.40;;;5.50;99.90;;;;;;5000873;28;21710;-71
2021/03/17 09:50:13;;;;;;;3.30;3.00;;;5.30;99.90;;;;;;5000641;28;21962;-71
2021/03/17 09:52:43;;;;;;;2.78;2.58;;;4.70;99.90;;;;;;4999996;28;20392;-73
2021/03/17 09:55:27;;;;;;;2.50;2.30;;;5.00;99.90;;;;;;5004006;28;20424;-68
2021/03/17 09:58:05;;;;;;;3.00;2.60;;;5.10;99.90;;;;;;4996966;28;20434;-68
2021/03/17 10:00:33;;;;;;;2.97;2.67;;;5.10;99.90;;;;;;4998270;28;20415;-73
2021/03/17 10:03:01;;;;;;;2.50;2.10;;;5.20;99.90;;;;;;5002001;28;20415;-69
2021/03/17 10:05:27;;;;;;;2.72;2.50;;;5.40;99.90;;;;;;5004820;28;20491;-68
2021/03/17 10:07:53;;;;;;;3.35;2.83;;;5.00;99.90;;;;;;5002334;28;20491;-69
2021/03/17 10:10:20;;;;;;;3.13;2.83;;;4.80;99.90;;;;;;5001441;28;20439;-68
2021/03/17 10:12:47;;;;;;;2.78;2.55;;;4.70;99.90;;;;;;4999590;28;20402;-71
2021/03/17 10:15:15;;;;;;;3.47;3.17;;;4.80;99.90;;;;;;5004276;28;20389;-69
2021/03/17 10:17:45;;;;;;;3.00;2.70;;;4.80;99.90;;;;;;5003363;28;20395;-70
2021/03/17 10:20:22;;;;;;;3.45;2.60;;;4.80;99.90;;;;;;5006393;28;20381;-72
2021/03/17 10:22:51;;;;;;;3.97;3.58;;;4.90;99.90;;;;;;5004088;28;20525;-70
2021/03/17 10:25:22;;;;;;;3.90;3.40;;;5.20;99.90;;;;;;5004912;28;20416;-70
2021/03/17 10:27:50;;;;;;;4.22;3.60;;;5.10;99.90;;;;;;4999371;28;20396;-69
2021/03/17 10:30:37;;;;;;;3.67;3.38;;;5.80;99.90;;;;;;5007874;28;20385;-68
2021/03/17 10:33:09;;;;;;;3.67;3.10;;;4.90;99.90;;;;;;5003167;28;20393;-69
2021/03/17 10:35:35;;;;;;;3.50;3.20;;;5.10;99.90;;;;;;5008084;28;20409;-70
2021/03/17 10:38:01;;;;;;;4.47;3.50;;;5.00;99.90;;;;;;5007982;28;20396;-68
2021/03/17 10:40:29;;;;;;;3.65;3.35;;;5.20;99.90;;;;;;5006317;28;20827;-69
2021/03/17 10:43:05;;;;;;;3.67;3.10;;;4.80;99.90;;;;;;5007953;28;20488;-68
2021/03/17 10:45:33;;;;;;;4.53;3.50;;;5.00;99.90;;;;;;5009796;28;20499;-70
2021/03/17 10:48:12;;;;;;;4.20;3.80;;;5.10;99.90;;;;;;5005061;28;20401;-69
2021/03/17 10:50:39;;;;;;;3.83;3.43;;;5.10;99.90;;;;;;4993752;28;20401;-69
2021/03/17 10:53:24;;;;;;;4.40;3.80;;;6.00;99.90;;;;;;4999005;28;20381;-72
2021/03/17 10:55:51;;;;;;;4.10;3.70;;;5.90;99.90;;;;;;4994644;28;20404;-69
2021/03/17 10:58:26;;;;;;;4.20;3.80;;;5.50;99.90;;;;;;4994408;28;20930;-74
2021/03/17 11:00:56;;;;;;;4.10;3.25;;;5.10;99.90;;;;;;4996580;28;20404;-72
2021/03/17 11:03:37;;;;;;;4.22;3.40;;;4.90;99.90;;;;;;4998442;28;20438;-68
2021/03/17 11:06:15;;;;;;;3.60;3.10;;;5.50;99.90;;;;;;5002885;28;21714;-69
2021/03/17 11:08:42;;;;;;;4.03;3.60;;;5.00;99.90;;;;;;4993094;28;20470;-68
2021/03/17 11:11:13;;;;;;;4.55;3.80;;;5.10;99.90;;;;;;4998239;28;20507;-68
2021/03/17 11:13:42;;;;;;;5.03;3.50;;;5.90;99.90;;;;;;4995898;28;20485;-70
2021/03/17 11:16:11;;;;;;;3.72;3.10;;;5.10;99.90;;;;;;4995850;28;20389;-71
2021/03/17 11:18:48;;;;;;;3.20;2.90;;;5.20;99.90;;;;;;4991792;28;20397;-72
2021/03/17 11:21:25;;;;;;;2.63;2.38;;;5.30;99.90;;;;;;4978455;28;20454;-71
2021/03/17 11:23:53;;;;;;;2.65;2.40;;;5.30;99.90;;;;;;4997432;28;20397;-72
2021/03/17 11:26:31;;;;;;;2.30;2.10;;;6.50;99.90;;;;;;4995274;28;20441;-69
2021/03/17 11:28:59;;;;;;;3.25;2.72;;;5.50;99.90;;;;;;5006804;28;20460;-70
2021/03/17 11:31:30;;;;;;;2.78;2.40;;;6.70;99.90;;;;;;4997345;28;20404;-71
2021/03/17 11:33:56;;;;;;;3.93;3.13;;;5.10;99.90;;;;;;4998682;28;20475;-70
2021/03/17 11:36:22;;;;;;;3.20;2.60;;;5.20;99.90;;;;;;4995131;28;20413;-75
2021/03/17 11:38:48;;;;;;;3.80;2.80;;;5.90;99.90;;;;;;4986111;28;20754;-74
2021/03/17 11:41:16;;;;;;;2.90;2.60;;;4.60;99.90;;;;;;4995746;28;20391;-74
2021/03/17 11:43:42;;;;;;;3.13;2.83;;;5.50;99.90;;;;;;4994709;28;20394;-73
2021/03/17 11:46:08;;;;;;;5.00;3.72;;;5.20;99.90;;;;;;5002112;28;20883;-71
2021/03/17 11:48:41;;;;;;;3.80;3.10;;;;;;;;;;5005076;28;20437;-73
2021/03/17 11:51:08;;;;;;;3.78;3.28;;;5.00;99.90;;;;;;5003129;28;20442;-69
2021/03/17 11:53:37;;;;;;;3.70;3.08;;;5.50;99.90;;;;;;5004718;28;21633;-72
2021/03/17 11:56:06;;;;;;;3.47;3.17;;;5.70;99.90;;;;;;5004837;28;20790;-69
2021/03/17 11:58:36;;;;;;;3.47;2.70;;;5.20;99.90;;;;;;5004658;28;20403;-71
2021/03/17 12:01:04;;;;;;;4.32;3.60;;;4.70;99.90;;;;;;5003084;28;20392;-68
2021/03/17 12:03:30;;;;;;;3.70;3.30;;;5.90;99.90;;;;;;5001080;28;20399;-69
2021/03/17 12:05:56;;;;;;;3.30;2.50;;;6.00;99.90;;;;;;4995611;28;20484;-69
2021/03/17 12:08:23;;;;;;;3.40;2.50;;;4.60;99.90;;;;;;4997235;28;20809;-69
2021/03/17 12:10:52;;;;;;;2.90;2.30;;;4.40;99.90;;;;;;4996763;28;20393;-70
2021/03/17 12:13:21;;;;;;;3.13;2.83;;;4.30;99.90;;;;;;5020081;28;20761;-70
2021/03/17 12:15:47;;;;;;;1.60;1.50;;;5.50;99.90;;;;;;5009068;28;20396;-69
2021/03/17 12:18:14;;;;;;;2.45;1.85;;;5.30;99.90;;;;;;5005350;28;20393;-68
2021/03/17 12:20:41;;;;;;;3.60;2.63;;;5.00;99.90;;;;;;5001153;28;20385;-70
2021/03/17 12:23:07;;;;;;;2.70;2.00;;;5.40;99.90;;;;;;5005340;28;20400;-69
2021/03/17 12:25:33;;;;;;;2.70;2.50;;;5.30;99.90;;;;;;5003780;28;20469;-71
2021/03/17 12:27:59;;;;;;;2.47;2.28;;;5.80;99.90;;;;;;5002064;28;20398;-68
2021/03/17 12:30:25;;;;;;;4.07;2.80;;;7.90;99.90;;;;;;5000578;28;20390;-69
2021/03/17 12:32:52;;;;;;;2.58;2.38;;;7.40;99.90;;;;;;5002543;28;20393;-68
2021/03/17 12:35:23;;;;;;;3.70;2.67;;;8.30;99.90;;;;;;4998480;28;20392;-69
2021/03/17 12:37:50;;;;;;;3.50;3.00;;;8.20;99.90;;;;;;5012732;28;20521;-68
2021/03/17 12:40:19;;;;;;;3.08;2.63;;;8.50;99.90;;;;;;4999416;28;20415;-68
2021/03/17 12:42:45;;;;;;;3.42;2.80;;;8.20;99.90;;;;;;4996387;28;20386;-68
2021/03/17 12:45:12;;;;;;;3.33;2.90;;;8.50;99.90;;;;;;5003509;28;20500;-68
2021/03/17 12:47:39;;;;;;;4.75;3.50;;;7.70;99.90;;;;;;5008651;28;21053;-72
2021/03/17 12:50:11;;;;;;;4.20;3.42;;;8.60;99.90;;;;;;5009141;28;20377;-67
2021/03/17 12:52:37;;;;;;;4.57;3.80;;;8.70;99.90;;;;;;5009170;28;20403;-72
2021/03/17 12:55:06;;;;;;;4.43;3.60;;;10.30;99.90;;;;;;5009594;28;20393;-67
2021/03/17 12:57:37;;;;;;;3.90;3.50;;;9.40;99.90;;;;;;5008807;28;20864;-66
2021/03/17 13:00:09;;;;;;;4.60;3.67;;;9.70;99.90;;;;;;5012238;28;20396;-68
2021/03/17 13:02:35;;;;;;;3.97;3.15;;;8.90;99.90;;;;;;5012566;28;20381;-71
2021/03/17 13:05:01;;;;;;;4.60;3.90;;;8.00;99.90;;;;;;5007723;28;20511;-67
2021/03/17 13:07:27;;;;;;;4.60;3.80;;;8.50;99.90;;;;;;5009684;28;20895;-67
2021/03/17 13:09:53;;;;;;;4.70;4.05;;;8.90;99.90;;;;;;5004412;28;20401;-68
2021/03/17 13:12:19;;;;;;;4.45;3.85;;;8.90;99.90;;;;;;5006367;28;20385;-68
2021/03/17 13:14:44;;;;;;;3.73;3.33;;;9.80;99.90;;;;;;5005182;28;20445;-73
2021/03/17 13:17:10;;;;;;;4.10;3.70;;;10.10;99.90;;;;;;5021777;28;20402;-69
2021/03/17 13:19:36;;;;;;;4.80;4.30;;;9.80;99.90;;;;;;5008109;28;20385;-72
2021/03/17 13:22:02;;;;;;;5.97;4.80;;;9.50;99.90;;;;;;5010061;28;20421;-68
2021/03/17 13:24:28;;;;;;;5.35;4.85;;;8.90;99.90;;;;;;5010073;28;20373;-66